sensor_id;sensor_type;location;lat;lon;timestamp;temperature;humidity
53045;DHT22;38930;52.766;6.884;2024-03-02T00:00:19;6.70;99.90
53045;DHT22;38930;52.766;6.884;2024-03-02T00:02:47;6.70;99.90
53045;DHT22;38930;52.766;6.884;2024-03-02T00:05:16;6.70;99.90
53045;DHT22;38930;52.766;6.884;2024-03-02T00:07:43;6.70;99.90
53045;DHT22;38930;52.766;6.884;2024-03-02T00:10:10;6.70;99.90
53045;DHT22;38930;52.766;6.884;2024-03-02T00:12:37;6.70;99.90
53045;DHT22;38930;52.766;6.884;2024-03-02T00:17:58;6.70;99.90
53045;DHT22;38930;52.766;6.884;2024-03-02T00:20:27;6.50;99.90
53045;DHT22;38930;52.766;6.884;2024-03-02T00:23:03;6.70;99.90
53045;DHT22;38930;52.766;6.884;2024-03-02T00:25:40;6.40;99.90
53045;DHT22;38930;52.766;6.884;2024-03-02T00:28:13;6.80;99.90
53045;DHT22;38930;52.766;6.884;2024-03-02T00:30:58;7.00;99.90
53045;DHT22;38930;52.766;6.884;2024-03-02T00:33:27;6.70;99.90
53045;DHT22;38930;52.766;6.884;2024-03-02T00:35:53;6.80;99.90
53045;DHT22;38930;52.766;6.884;2024-03-02T00:38:19;6.80;99.90
53045;DHT22;38930;52.766;6.884;2024-03-02T00:40:45;6.80;99.90
53045;DHT22;38930;52.766;6.884;2024-03-02T00:45:55;6.80;99.90
53045;DHT22;38930;52.766;6.884;2024-03-02T00:48:21;8.00;99.90
53045;DHT22;38930;52.766;6.884;2024-03-02T00:50:52;7.90;99.90
53045;DHT22;38930;52.766;6.884;2024-03-02T00:53:20;6.90;99.90
53045;DHT22;38930;52.766;6.884;2024-03-02T00:55:49;6.90;99.90
53045;DHT22;38930;52.766;6.884;2024-03-02T00:58:14;7.80;99.90
53045;DHT22;38930;52.766;6.884;2024-03-02T01:00:40;6.90;99.90
53045;DHT22;38930;52.766;6.884;2024-03-02T01:03:06;6.90;99.90
53045;DHT22;38930;52.766;6.884;2024-03-02T01:05:33;7.00;99.90
53045;DHT22;38930;52.766;6.884;2024-03-02T01:07:58;7.00;99.90
53045;DHT22;38930;52.766;6.884;2024-03-02T01:10:24;7.40;99.90
53045;DHT22;38930;52.766;6.884;2024-03-02T01:12:51;7.00;99.90
53045;DHT22;38930;52.766;6.884;2024-03-02T01:15:17;7.00;99.90
53045;DHT22;38930;52.766;6.884;2024-03-02T01:17:42;7.00;99.90
53045;DHT22;38930;52.766;6.884;2024-03-02T01:20:08;7.10;99.90
53045;DHT22;38930;52.766;6.884;2024-03-02T01:22:35;7.00;99.90
53045;DHT22;38930;52.766;6.884;2024-03-02T01:25:01;7.10;99.90
53045;DHT22;38930;52.766;6.884;2024-03-02T01:27:27;7.00;99.90
53045;DHT22;38930;52.766;6.884;2024-03-02T01:29:53;7.40;99.90
53045;DHT22;38930;52.766;6.884;2024-03-02T01:32:20;7.00;99.90
53045;DHT22;38930;52.766;6.884;2024-03-02T01:34:46;7.10;99.90
53045;DHT22;38930;52.766;6.884;2024-03-02T01:37:11;7.10;99.90
53045;DHT22;38930;52.766;6.884;2024-03-02T01:39:37;7.10;99.90
53045;DHT22;38930;52.766;6.884;2024-03-02T01:42:03;6.70;99.90
53045;DHT22;38930;52.766;6.884;2024-03-02T01:44:28;7.10;99.90
53045;DHT22;38930;52.766;6.884;2024-03-02T01:46:54;7.40;99.90
53045;DHT22;38930;52.766;6.884;2024-03-02T01:49:19;7.10;99.90
53045;DHT22;38930;52.766;6.884;2024-03-02T01:51:45;7.20;99.90
53045;DHT22;38930;52.766;6.884;2024-03-02T01:54:11;7.20;99.90
53045;DHT22;38930;52.766;6.884;2024-03-02T01:56:37;7.90;99.90
53045;DHT22;38930;52.766;6.884;2024-03-02T01:59:02;7.70;99.90
53045;DHT22;38930;52.766;6.884;2024-03-02T02:01:28;7.30;99.90
53045;DHT22;38930;52.766;6.884;2024-03-02T02:03:54;8.20;99.90
53045;DHT22;38930;52.766;6.884;2024-03-02T02:06:20;8.10;99.90
53045;DHT22;38930;52.766;6.884;2024-03-02T02:08:46;7.50;99.90
53045;DHT22;38930;52.766;6.884;2024-03-02T02:11:15;7.50;99.90
53045;DHT22;38930;52.766;6.884;2024-03-02T02:13:41;7.40;99.90
53045;DHT22;38930;52.766;6.884;2024-03-02T02:16:07;7.50;99.90
53045;DHT22;38930;52.766;6.884;2024-03-02T02:18:33;7.50;99.90
53045;DHT22;38930;52.766;6.884;2024-03-02T02:20:59;7.50;99.90
53045;DHT22;38930;52.766;6.884;2024-03-02T02:23:24;7.50;99.90
53045;DHT22;38930;52.766;6.884;2024-03-02T02:25:50;7.70;99.90
53045;DHT22;38930;52.766;6.884;2024-03-02T02:28:16;7.70;99.90
53045;DHT22;38930;52.766;6.884;2024-03-02T02:30:42;7.50;99.90
53045;DHT22;38930;52.766;6.884;2024-03-02T02:33:08;7.60;99.90
53045;DHT22;38930;52.766;6.884;2024-03-02T02:35:34;7.60;99.90
53045;DHT22;38930;52.766;6.884;2024-03-02T02:38:00;7.60;99.90
53045;DHT22;38930;52.766;6.884;2024-03-02T02:40:26;8.70;99.90
53045;DHT22;38930;52.766;6.884;2024-03-02T02:42:52;7.60;99.90
53045;DHT22;38930;52.766;6.884;2024-03-02T02:45:18;7.60;99.90
53045;DHT22;38930;52.766;6.884;2024-03-02T02:47:44;8.50;99.90
53045;DHT22;38930;52.766;6.884;2024-03-02T02:50:11;7.90;99.90
53045;DHT22;38930;52.766;6.884;2024-03-02T02:52:37;7.70;99.90
53045;DHT22;38930;52.766;6.884;2024-03-02T02:55:06;7.60;99.90
53045;DHT22;38930;52.766;6.884;2024-03-02T02:57:32;7.60;99.90
53045;DHT22;38930;52.766;6.884;2024-03-02T03:00:02;7.70;99.90
53045;DHT22;38930;52.766;6.884;2024-03-02T03:02:30;8.50;99.90
53045;DHT22;38930;52.766;6.884;2024-03-02T03:04:56;7.40;99.90
53045;DHT22;38930;52.766;6.884;2024-03-02T03:07:23;7.80;99.90
53045;DHT22;38930;52.766;6.884;2024-03-02T03:09:48;7.80;99.90
53045;DHT22;38930;52.766;6.884;2024-03-02T03:12:14;7.80;99.90
53045;DHT22;38930;52.766;6.884;2024-03-02T03:14:42;7.80;99.90
53045;DHT22;38930;52.766;6.884;2024-03-02T03:17:08;7.80;99.90
53045;DHT22;38930;52.766;6.884;2024-03-02T03:19:34;7.80;99.90
53045;DHT22;38930;52.766;6.884;2024-03-02T03:21:59;7.90;99.90
53045;DHT22;38930;52.766;6.884;2024-03-02T03:24:25;8.00;99.90
53045;DHT22;38930;52.766;6.884;2024-03-02T03:26:51;7.50;99.90
53045;DHT22;38930;52.766;6.884;2024-03-02T03:29:16;8.80;99.90
53045;DHT22;38930;52.766;6.884;2024-03-02T03:31:42;7.90;99.90
53045;DHT22;38930;52.766;6.884;2024-03-02T03:34:07;8.20;99.90
53045;DHT22;38930;52.766;6.884;2024-03-02T03:36:33;7.80;99.90
53045;DHT22;38930;52.766;6.884;2024-03-02T03:38:58;7.80;99.90
53045;DHT22;38930;52.766;6.884;2024-03-02T03:41:24;7.80;99.90
53045;DHT22;38930;52.766;6.884;2024-03-02T03:43:49;8.60;99.90
53045;DHT22;38930;52.766;6.884;2024-03-02T03:46:15;8.70;99.90
53045;DHT22;38930;52.766;6.884;2024-03-02T03:48:41;7.70;99.90
53045;DHT22;38930;52.766;6.884;2024-03-02T03:51:07;7.60;99.90
53045;DHT22;38930;52.766;6.884;2024-03-02T03:53:33;7.60;99.90
53045;DHT22;38930;52.766;6.884;2024-03-02T03:55:58;7.90;99.90
53045;DHT22;38930;52.766;6.884;2024-03-02T03:58:24;7.40;99.90
53045;DHT22;38930;52.766;6.884;2024-03-02T04:00:49;7.30;99.90
53045;DHT22;38930;52.766;6.884;2024-03-02T04:03:15;7.00;99.90
53045;DHT22;38930;52.766;6.884;2024-03-02T04:05:40;7.30;99.90
53045;DHT22;38930;52.766;6.884;2024-03-02T04:08:06;7.30;99.90
53045;DHT22;38930;52.766;6.884;2024-03-02T04:10:32;7.50;99.90
53045;DHT22;38930;52.766;6.884;2024-03-02T04:12:57;6.70;99.90
53045;DHT22;38930;52.766;6.884;2024-03-02T04:15:23;7.70;99.90
53045;DHT22;38930;52.766;6.884;2024-03-02T04:17:49;7.20;99.90
53045;DHT22;38930;52.766;6.884;2024-03-02T04:20:14;7.20;99.90
53045;DHT22;38930;52.766;6.884;2024-03-02T04:22:40;7.20;99.90
53045;DHT22;38930;52.766;6.884;2024-03-02T04:25:06;7.20;99.90
53045;DHT22;38930;52.766;6.884;2024-03-02T04:27:32;7.20;99.90
53045;DHT22;38930;52.766;6.884;2024-03-02T04:29:59;7.20;99.90
53045;DHT22;38930;52.766;6.884;2024-03-02T04:32:26;8.30;99.90
53045;DHT22;38930;52.766;6.884;2024-03-02T04:34:52;7.40;99.90
53045;DHT22;38930;52.766;6.884;2024-03-02T04:37:18;7.20;99.90
53045;DHT22;38930;52.766;6.884;2024-03-02T04:39:43;8.10;99.90
53045;DHT22;38930;52.766;6.884;2024-03-02T04:42:09;7.30;99.90
53045;DHT22;38930;52.766;6.884;2024-03-02T04:44:34;7.20;99.90
53045;DHT22;38930;52.766;6.884;2024-03-02T04:47:00;7.10;99.90
53045;DHT22;38930;52.766;6.884;2024-03-02T04:49:26;7.10;99.90
53045;DHT22;38930;52.766;6.884;2024-03-02T04:51:51;6.30;99.90
53045;DHT22;38930;52.766;6.884;2024-03-02T04:54:17;7.90;99.90
53045;DHT22;38930;52.766;6.884;2024-03-02T04:56:43;7.10;99.90
53045;DHT22;38930;52.766;6.884;2024-03-02T04:59:10;7.10;99.90
53045;DHT22;38930;52.766;6.884;2024-03-02T05:01:36;6.80;99.90
53045;DHT22;38930;52.766;6.884;2024-03-02T05:04:01;7.10;99.90
53045;DHT22;38930;52.766;6.884;2024-03-02T05:06:27;7.10;99.90
53045;DHT22;38930;52.766;6.884;2024-03-02T05:08:53;7.20;99.90
53045;DHT22;38930;52.766;6.884;2024-03-02T05:11:18;7.00;99.90
53045;DHT22;38930;52.766;6.884;2024-03-02T05:14:10;8.20;99.90
53045;DHT22;38930;52.766;6.884;2024-03-02T05:16:36;7.50;99.90
53045;DHT22;38930;52.766;6.884;2024-03-02T05:19:05;6.80;99.90
53045;DHT22;38930;52.766;6.884;2024-03-02T05:21:34;6.80;99.90
53045;DHT22;38930;52.766;6.884;2024-03-02T05:24:00;6.70;99.90
53045;DHT22;38930;52.766;6.884;2024-03-02T05:26:25;6.20;99.90
53045;DHT22;38930;52.766;6.884;2024-03-02T05:28:51;7.40;99.90
53045;DHT22;38930;52.766;6.884;2024-03-02T05:31:17;6.60;99.90
53045;DHT22;38930;52.766;6.884;2024-03-02T05:33:43;6.30;99.90
53045;DHT22;38930;52.766;6.884;2024-03-02T05:36:09;6.60;99.90
53045;DHT22;38930;52.766;6.884;2024-03-02T05:38:35;6.50;99.90
53045;DHT22;38930;52.766;6.884;2024-03-02T05:41:01;6.70;99.90
53045;DHT22;38930;52.766;6.884;2024-03-02T05:43:26;6.50;99.90
53045;DHT22;38930;52.766;6.884;2024-03-02T05:45:52;6.50;99.90
53045;DHT22;38930;52.766;6.884;2024-03-02T05:48:17;6.50;99.90
53045;DHT22;38930;52.766;6.884;2024-03-02T05:50:43;6.50;99.90
53045;DHT22;38930;52.766;6.884;2024-03-02T05:53:09;6.50;99.90
53045;DHT22;38930;52.766;6.884;2024-03-02T05:55:34;6.50;99.90
53045;DHT22;38930;52.766;6.884;2024-03-02T05:58:00;6.50;99.90
53045;DHT22;38930;52.766;6.884;2024-03-02T06:00:31;6.40;99.90
53045;DHT22;38930;52.766;6.884;2024-03-02T06:02:57;6.50;99.90
53045;DHT22;38930;52.766;6.884;2024-03-02T06:05:23;6.50;99.90
53045;DHT22;38930;52.766;6.884;2024-03-02T06:07:49;6.30;99.90
53045;DHT22;38930;52.766;6.884;2024-03-02T06:10:14;7.40;99.90
53045;DHT22;38930;52.766;6.884;2024-03-02T06:12:40;6.50;99.90
53045;DHT22;38930;52.766;6.884;2024-03-02T06:15:06;6.40;99.90
53045;DHT22;38930;52.766;6.884;2024-03-02T06:17:32;6.40;99.90
53045;DHT22;38930;52.766;6.884;2024-03-02T06:20:00;6.40;99.90
53045;DHT22;38930;52.766;6.884;2024-03-02T06:22:25;6.30;99.90
53045;DHT22;38930;52.766;6.884;2024-03-02T06:24:51;6.60;99.90
53045;DHT22;38930;52.766;6.884;2024-03-02T06:27:17;6.30;99.90
53045;DHT22;38930;52.766;6.884;2024-03-02T06:29:42;6.30;99.90
53045;DHT22;38930;52.766;6.884;2024-03-02T06:32:08;6.30;99.90
53045;DHT22;38930;52.766;6.884;2024-03-02T06:34:33;6.30;99.90
53045;DHT22;38930;52.766;6.884;2024-03-02T06:36:59;6.30;99.90
53045;DHT22;38930;52.766;6.884;2024-03-02T06:39:25;6.40;99.90
53045;DHT22;38930;52.766;6.884;2024-03-02T06:41:51;6.20;99.90
53045;DHT22;38930;52.766;6.884;2024-03-02T06:44:17;6.20;99.90
53045;DHT22;38930;52.766;6.884;2024-03-02T06:46:43;6.40;99.90
53045;DHT22;38930;52.766;6.884;2024-03-02T06:49:08;6.50;99.90
53045;DHT22;38930;52.766;6.884;2024-03-02T06:51:36;7.60;99.90
53045;DHT22;38930;52.766;6.884;2024-03-02T06:54:01;6.50;99.90
53045;DHT22;38930;52.766;6.884;2024-03-02T06:56:27;6.60;99.90
53045;DHT22;38930;52.766;6.884;2024-03-02T06:58:53;6.60;99.90
53045;DHT22;38930;52.766;6.884;2024-03-02T07:01:18;6.60;99.90
53045;DHT22;38930;52.766;6.884;2024-03-02T07:03:45;6.60;99.90
53045;DHT22;38930;52.766;6.884;2024-03-02T07:06:11;6.70;99.90
53045;DHT22;38930;52.766;6.884;2024-03-02T07:08:37;6.70;99.90
53045;DHT22;38930;52.766;6.884;2024-03-02T07:11:02;6.70;99.90
53045;DHT22;38930;52.766;6.884;2024-03-02T07:13:28;6.70;99.90
53045;DHT22;38930;52.766;6.884;2024-03-02T07:15:53;6.70;99.90
53045;DHT22;38930;52.766;6.884;2024-03-02T07:18:45;6.70;99.90
53045;DHT22;38930;52.766;6.884;2024-03-02T07:21:16;7.70;99.90
53045;DHT22;38930;52.766;6.884;2024-03-02T07:23:42;7.10;99.90
53045;DHT22;38930;52.766;6.884;2024-03-02T07:26:07;7.00;99.90
53045;DHT22;38930;52.766;6.884;2024-03-02T07:28:33;6.70;99.90
53045;DHT22;38930;52.766;6.884;2024-03-02T07:31:00;7.00;99.90
53045;DHT22;38930;52.766;6.884;2024-03-02T07:33:26;6.70;99.90
53045;DHT22;38930;52.766;6.884;2024-03-02T07:35:53;6.70;99.90
53045;DHT22;38930;52.766;6.884;2024-03-02T07:38:19;6.80;99.90
53045;DHT22;38930;52.766;6.884;2024-03-02T07:40:44;6.80;99.90
53045;DHT22;38930;52.766;6.884;2024-03-02T07:43:10;7.00;99.90
53045;DHT22;38930;52.766;6.884;2024-03-02T07:45:36;6.60;99.90
53045;DHT22;38930;52.766;6.884;2024-03-02T07:48:02;7.80;99.90
53045;DHT22;38930;52.766;6.884;2024-03-02T07:50:29;6.90;99.90
53045;DHT22;38930;52.766;6.884;2024-03-02T07:52:56;6.80;99.90
53045;DHT22;38930;52.766;6.884;2024-03-02T07:55:21;6.90;99.90
53045;DHT22;38930;52.766;6.884;2024-03-02T07:57:49;7.00;99.90
53045;DHT22;38930;52.766;6.884;2024-03-02T08:00:15;7.60;99.90
53045;DHT22;38930;52.766;6.884;2024-03-02T08:02:41;7.00;99.90
53045;DHT22;38930;52.766;6.884;2024-03-02T08:05:08;7.10;99.90
53045;DHT22;38930;52.766;6.884;2024-03-02T08:07:34;7.10;99.90
53045;DHT22;38930;52.766;6.884;2024-03-02T08:10:00;7.10;99.90
53045;DHT22;38930;52.766;6.884;2024-03-02T08:12:25;7.10;99.90
53045;DHT22;38930;52.766;6.884;2024-03-02T08:14:51;7.40;99.90
53045;DHT22;38930;52.766;6.884;2024-03-02T08:17:16;7.20;99.90
53045;DHT22;38930;52.766;6.884;2024-03-02T08:19:43;7.20;99.90
53045;DHT22;38930;52.766;6.884;2024-03-02T08:22:09;7.30;99.90
53045;DHT22;38930;52.766;6.884;2024-03-02T08:24:35;7.20;99.90
53045;DHT22;38930;52.766;6.884;2024-03-02T08:27:01;7.40;99.90
53045;DHT22;38930;52.766;6.884;2024-03-02T08:29:27;7.40;99.90
53045;DHT22;38930;52.766;6.884;2024-03-02T08:31:53;8.20;99.90
53045;DHT22;38930;52.766;6.884;2024-03-02T08:34:19;7.50;99.90
53045;DHT22;38930;52.766;6.884;2024-03-02T08:36:45;7.70;99.90
53045;DHT22;38930;52.766;6.884;2024-03-02T08:39:11;7.10;99.90
53045;DHT22;38930;52.766;6.884;2024-03-02T08:41:49;7.50;99.90
53045;DHT22;38930;52.766;6.884;2024-03-02T08:44:16;7.70;99.90
53045;DHT22;38930;52.766;6.884;2024-03-02T08:46:41;7.80;99.90
53045;DHT22;38930;52.766;6.884;2024-03-02T08:49:07;7.80;99.90
53045;DHT22;38930;52.766;6.884;2024-03-02T08:51:33;7.90;99.90
53045;DHT22;38930;52.766;6.884;2024-03-02T08:53:59;8.20;99.90
53045;DHT22;38930;52.766;6.884;2024-03-02T08:56:24;8.10;99.90
53045;DHT22;38930;52.766;6.884;2024-03-02T08:58:51;9.10;99.90
53045;DHT22;38930;52.766;6.884;2024-03-02T09:01:18;8.30;99.90
53045;DHT22;38930;52.766;6.884;2024-03-02T09:03:45;8.40;99.90
53045;DHT22;38930;52.766;6.884;2024-03-02T09:06:11;8.30;99.90
53045;DHT22;38930;52.766;6.884;2024-03-02T09:08:36;8.50;99.90
53045;DHT22;38930;52.766;6.884;2024-03-02T09:11:06;8.40;99.90
53045;DHT22;38930;52.766;6.884;2024-03-02T09:13:32;8.60;99.90
53045;DHT22;38930;52.766;6.884;2024-03-02T09:15:58;8.60;99.90
53045;DHT22;38930;52.766;6.884;2024-03-02T09:18:24;8.60;99.90
53045;DHT22;38930;52.766;6.884;2024-03-02T09:20:49;8.70;99.90
53045;DHT22;38930;52.766;6.884;2024-03-02T09:23:15;8.60;99.90
53045;DHT22;38930;52.766;6.884;2024-03-02T09:25:40;8.80;99.90
53045;DHT22;38930;52.766;6.884;2024-03-02T09:28:06;8.80;99.90
53045;DHT22;38930;52.766;6.884;2024-03-02T09:30:33;9.40;99.90
53045;DHT22;38930;52.766;6.884;2024-03-02T09:32:58;9.10;99.90
53045;DHT22;38930;52.766;6.884;2024-03-02T09:35:24;9.20;99.90
53045;DHT22;38930;52.766;6.884;2024-03-02T09:37:50;9.30;99.90
53045;DHT22;38930;52.766;6.884;2024-03-02T09:40:16;9.20;99.90
53045;DHT22;38930;52.766;6.884;2024-03-02T09:42:42;9.20;99.90
53045;DHT22;38930;52.766;6.884;2024-03-02T09:45:09;9.20;99.90
53045;DHT22;38930;52.766;6.884;2024-03-02T09:47:34;9.60;99.90
53045;DHT22;38930;52.766;6.884;2024-03-02T09:50:00;9.30;99.90
53045;DHT22;38930;52.766;6.884;2024-03-02T09:52:26;10.30;99.90
53045;DHT22;38930;52.766;6.884;2024-03-02T09:54:52;9.40;99.90
53045;DHT22;38930;52.766;6.884;2024-03-02T09:57:18;10.40;99.90
53045;DHT22;38930;52.766;6.884;2024-03-02T09:59:44;10.50;99.90
53045;DHT22;38930;52.766;6.884;2024-03-02T10:02:10;9.60;99.90
53045;DHT22;38930;52.766;6.884;2024-03-02T10:04:36;10.00;99.90
53045;DHT22;38930;52.766;6.884;2024-03-02T10:07:18;9.30;99.90
53045;DHT22;38930;52.766;6.884;2024-03-02T10:09:46;9.70;99.90
53045;DHT22;38930;52.766;6.884;2024-03-02T10:12:13;9.80;99.90
53045;DHT22;38930;52.766;6.884;2024-03-02T10:14:39;9.70;99.90
53045;DHT22;38930;52.766;6.884;2024-03-02T10:17:07;9.90;99.90
53045;DHT22;38930;52.766;6.884;2024-03-02T10:19:34;9.70;99.90
53045;DHT22;38930;52.766;6.884;2024-03-02T10:22:05;10.10;99.90
53045;DHT22;38930;52.766;6.884;2024-03-02T10:24:40;10.00;99.90
53045;DHT22;38930;52.766;6.884;2024-03-02T10:27:31;10.10;99.90
53045;DHT22;38930;52.766;6.884;2024-03-02T10:29:56;10.00;99.90
53045;DHT22;38930;52.766;6.884;2024-03-02T10:32:22;10.20;99.90
53045;DHT22;38930;52.766;6.884;2024-03-02T10:34:48;10.70;99.90
53045;DHT22;38930;52.766;6.884;2024-03-02T10:37:15;10.30;99.90
53045;DHT22;38930;52.766;6.884;2024-03-02T10:39:42;9.70;99.90
53045;DHT22;38930;52.766;6.884;2024-03-02T10:42:08;11.00;99.90
53045;DHT22;38930;52.766;6.884;2024-03-02T10:44:34;10.50;99.90
53045;DHT22;38930;52.766;6.884;2024-03-02T10:47:02;10.50;99.90
53045;DHT22;38930;52.766;6.884;2024-03-02T10:49:30;10.50;99.90
53045;DHT22;38930;52.766;6.884;2024-03-02T10:51:56;10.50;99.90
53045;DHT22;38930;52.766;6.884;2024-03-02T10:54:22;10.50;99.90
53045;DHT22;38930;52.766;6.884;2024-03-02T10:56:53;10.70;99.90
53045;DHT22;38930;52.766;6.884;2024-03-02T10:59:36;10.70;99.90
53045;DHT22;38930;52.766;6.884;2024-03-02T11:02:03;10.70;99.90
53045;DHT22;38930;52.766;6.884;2024-03-02T11:04:30;10.60;99.90
53045;DHT22;38930;52.766;6.884;2024-03-02T11:07:04;10.60;99.90
53045;DHT22;38930;52.766;6.884;2024-03-02T11:09:33;10.50;99.90
53045;DHT22;38930;52.766;6.884;2024-03-02T11:12:19;10.50;99.90
53045;DHT22;38930;52.766;6.884;2024-03-02T11:14:48;10.40;99.90
53045;DHT22;38930;52.766;6.884;2024-03-02T11:17:17;10.20;99.90
53045;DHT22;38930;52.766;6.884;2024-03-02T11:19:44;11.10;99.90
53045;DHT22;38930;52.766;6.884;2024-03-02T11:22:11;10.40;99.90
53045;DHT22;38930;52.766;6.884;2024-03-02T11:24:37;11.20;99.90
53045;DHT22;38930;52.766;6.884;2024-03-02T11:27:04;10.60;99.90
53045;DHT22;38930;52.766;6.884;2024-03-02T11:32:06;10.50;99.90
53045;DHT22;38930;52.766;6.884;2024-03-02T11:34:38;10.50;99.90
53045;DHT22;38930;52.766;6.884;2024-03-02T11:37:10;10.50;99.90
53045;DHT22;38930;52.766;6.884;2024-03-02T11:39:38;10.70;99.90
53045;DHT22;38930;52.766;6.884;2024-03-02T11:42:06;11.00;99.90
53045;DHT22;38930;52.766;6.884;2024-03-02T11:44:34;10.80;99.90
53045;DHT22;38930;52.766;6.884;2024-03-02T11:47:01;10.80;99.90
53045;DHT22;38930;52.766;6.884;2024-03-02T11:49:43;11.00;99.90
53045;DHT22;38930;52.766;6.884;2024-03-02T11:52:10;11.20;99.90
53045;DHT22;38930;52.766;6.884;2024-03-02T11:54:37;11.20;99.90
53045;DHT22;38930;52.766;6.884;2024-03-02T11:57:05;11.40;99.90
53045;DHT22;38930;52.766;6.884;2024-03-02T11:59:32;11.40;99.90
53045;DHT22;38930;52.766;6.884;2024-03-02T12:01:58;11.40;99.90
53045;DHT22;38930;52.766;6.884;2024-03-02T12:04:24;11.60;99.90
53045;DHT22;38930;52.766;6.884;2024-03-02T12:06:57;11.60;99.90
53045;DHT22;38930;52.766;6.884;2024-03-02T12:09:29;11.70;99.90
53045;DHT22;38930;52.766;6.884;2024-03-02T12:14:30;12.00;99.90
53045;DHT22;38930;52.766;6.884;2024-03-02T12:16:56;12.10;99.90
53045;DHT22;38930;52.766;6.884;2024-03-02T12:19:24;12.20;99.90
53045;DHT22;38930;52.766;6.884;2024-03-02T12:21:50;12.70;99.90
53045;DHT22;38930;52.766;6.884;2024-03-02T12:24:16;12.30;99.90
53045;DHT22;38930;52.766;6.884;2024-03-02T12:26:42;12.30;99.90
53045;DHT22;38930;52.766;6.884;2024-03-02T12:29:08;12.40;99.90
53045;DHT22;38930;52.766;6.884;2024-03-02T12:31:34;12.40;99.90
53045;DHT22;38930;52.766;6.884;2024-03-02T12:34:01;12.40;99.90
53045;DHT22;38930;52.766;6.884;2024-03-02T12:36:27;12.30;99.90
53045;DHT22;38930;52.766;6.884;2024-03-02T12:38:53;12.40;99.90
53045;DHT22;38930;52.766;6.884;2024-03-02T12:41:20;12.60;99.90
53045;DHT22;38930;52.766;6.884;2024-03-02T12:43:46;12.60;99.90
53045;DHT22;38930;52.766;6.884;2024-03-02T12:46:12;12.60;99.90
53045;DHT22;38930;52.766;6.884;2024-03-02T12:48:37;12.60;99.90
53045;DHT22;38930;52.766;6.884;2024-03-02T12:51:06;12.60;99.90
53045;DHT22;38930;52.766;6.884;2024-03-02T12:53:32;12.60;99.90
53045;DHT22;38930;52.766;6.884;2024-03-02T12:55:58;12.60;99.90
53045;DHT22;38930;52.766;6.884;2024-03-02T12:58:24;12.70;99.90
53045;DHT22;38930;52.766;6.884;2024-03-02T13:00:49;12.70;99.90
53045;DHT22;38930;52.766;6.884;2024-03-02T13:03:17;12.80;99.90
53045;DHT22;38930;52.766;6.884;2024-03-02T13:05:48;12.90;99.90
53045;DHT22;38930;52.766;6.884;2024-03-02T13:08:15;12.90;99.90
53045;DHT22;38930;52.766;6.884;2024-03-02T13:10:41;12.90;99.90
53045;DHT22;38930;52.766;6.884;2024-03-02T13:13:07;12.90;99.90
53045;DHT22;38930;52.766;6.884;2024-03-02T13:15:33;12.90;99.90
53045;DHT22;38930;52.766;6.884;2024-03-02T13:18:00;12.90;99.90
53045;DHT22;38930;52.766;6.884;2024-03-02T13:20:30;12.80;99.90
53045;DHT22;38930;52.766;6.884;2024-03-02T13:22:57;12.80;99.90
53045;DHT22;38930;52.766;6.884;2024-03-02T13:25:22;12.70;99.90
53045;DHT22;38930;52.766;6.884;2024-03-02T13:27:48;12.90;99.90
53045;DHT22;38930;52.766;6.884;2024-03-02T13:30:14;12.90;99.90
53045;DHT22;38930;52.766;6.884;2024-03-02T13:32:39;12.90;99.90
53045;DHT22;38930;52.766;6.884;2024-03-02T13:35:05;12.90;99.90
53045;DHT22;38930;52.766;6.884;2024-03-02T13:37:30;12.90;99.90
53045;DHT22;38930;52.766;6.884;2024-03-02T13:39:56;13.00;99.90
53045;DHT22;38930;52.766;6.884;2024-03-02T13:42:22;12.80;99.90
53045;DHT22;38930;52.766;6.884;2024-03-02T13:44:47;13.00;99.90
53045;DHT22;38930;52.766;6.884;2024-03-02T13:47:13;13.00;99.90
53045;DHT22;38930;52.766;6.884;2024-03-02T13:49:39;13.00;99.90
53045;DHT22;38930;52.766;6.884;2024-03-02T13:52:09;12.90;99.90
53045;DHT22;38930;52.766;6.884;2024-03-02T13:54:43;12.90;99.90
53045;DHT22;38930;52.766;6.884;2024-03-02T13:57:09;12.80;99.90
53045;DHT22;38930;52.766;6.884;2024-03-02T13:59:35;12.80;99.90
53045;DHT22;38930;52.766;6.884;2024-03-02T14:02:01;12.90;99.90
53045;DHT22;38930;52.766;6.884;2024-03-02T14:04:32;12.80;99.90
53045;DHT22;38930;52.766;6.884;2024-03-02T14:06:59;12.70;99.90
53045;DHT22;38930;52.766;6.884;2024-03-02T14:09:24;12.70;99.90
53045;DHT22;38930;52.766;6.884;2024-03-02T14:11:51;12.70;99.90
53045;DHT22;38930;52.766;6.884;2024-03-02T14:14:17;12.70;99.90
53045;DHT22;38930;52.766;6.884;2024-03-02T14:16:43;12.60;99.90
53045;DHT22;38930;52.766;6.884;2024-03-02T14:19:09;12.60;99.90
53045;DHT22;38930;52.766;6.884;2024-03-02T14:21:35;12.50;99.90
53045;DHT22;38930;52.766;6.884;2024-03-02T14:24:01;12.50;99.90
53045;DHT22;38930;52.766;6.884;2024-03-02T14:26:27;12.50;99.90
53045;DHT22;38930;52.766;6.884;2024-03-02T14:28:54;12.50;99.90
53045;DHT22;38930;52.766;6.884;2024-03-02T14:31:20;12.50;99.90
53045;DHT22;38930;52.766;6.884;2024-03-02T14:33:46;12.50;99.90
53045;DHT22;38930;52.766;6.884;2024-03-02T14:36:12;12.50;99.90
53045;DHT22;38930;52.766;6.884;2024-03-02T14:38:38;12.50;99.90
53045;DHT22;38930;52.766;6.884;2024-03-02T14:41:04;12.90;99.90
53045;DHT22;38930;52.766;6.884;2024-03-02T14:43:29;12.50;99.90
53045;DHT22;38930;52.766;6.884;2024-03-02T14:45:56;12.50;99.90
53045;DHT22;38930;52.766;6.884;2024-03-02T14:48:22;12.50;99.90
53045;DHT22;38930;52.766;6.884;2024-03-02T14:50:48;12.50;99.90
53045;DHT22;38930;52.766;6.884;2024-03-02T14:53:13;12.50;99.90
53045;DHT22;38930;52.766;6.884;2024-03-02T14:55:39;12.50;99.90
53045;DHT22;38930;52.766;6.884;2024-03-02T14:58:05;12.50;99.90
53045;DHT22;38930;52.766;6.884;2024-03-02T15:00:30;12.50;99.90
53045;DHT22;38930;52.766;6.884;2024-03-02T15:02:56;12.50;99.90
53045;DHT22;38930;52.766;6.884;2024-03-02T15:05:22;12.50;99.90
53045;DHT22;38930;52.766;6.884;2024-03-02T15:07:47;12.50;99.90
53045;DHT22;38930;52.766;6.884;2024-03-02T15:10:13;12.60;99.90
53045;DHT22;38930;52.766;6.884;2024-03-02T15:12:38;12.60;99.90
53045;DHT22;38930;52.766;6.884;2024-03-02T15:15:04;12.60;99.90
53045;DHT22;38930;52.766;6.884;2024-03-02T15:17:30;12.70;99.90
53045;DHT22;38930;52.766;6.884;2024-03-02T15:19:56;12.70;99.90
53045;DHT22;38930;52.766;6.884;2024-03-02T15:22:21;12.70;99.90
53045;DHT22;38930;52.766;6.884;2024-03-02T15:24:47;12.80;99.90
53045;DHT22;38930;52.766;6.884;2024-03-02T15:27:13;12.80;99.90
53045;DHT22;38930;52.766;6.884;2024-03-02T15:29:38;12.80;99.90
53045;DHT22;38930;52.766;6.884;2024-03-02T15:32:05;12.90;99.90
53045;DHT22;38930;52.766;6.884;2024-03-02T15:34:32;12.90;99.90
53045;DHT22;38930;52.766;6.884;2024-03-02T15:36:58;12.90;99.90
53045;DHT22;38930;52.766;6.884;2024-03-02T15:39:24;12.90;99.90
53045;DHT22;38930;52.766;6.884;2024-03-02T15:41:50;12.90;99.90
53045;DHT22;38930;52.766;6.884;2024-03-02T15:44:16;12.90;99.90
53045;DHT22;38930;52.766;6.884;2024-03-02T15:46:42;12.90;99.90